createdAt,value
2023-04-01T00:00:27.334Z,93748.00
2023-04-01T00:01:27.298Z,93746.00
2023-04-01T00:02:27.379Z,93742.00
2023-04-01T00:03:27.529Z,93740.00
2023-04-01T00:04:27.403Z,93744.00
2023-04-01T00:05:27.327Z,93742.00
2023-04-01T00:06:27.417Z,93742.00
2023-04-01T00:07:30.731Z,93742.00
2023-04-01T00:08:27.321Z,93742.00
2023-04-01T00:09:29.991Z,93742.00
2023-04-01T00:10:27.334Z,93740.00
2023-04-01T00:11:27.308Z,93746.00
2023-04-01T00:12:27.368Z,93744.00
2023-04-01T00:13:27.396Z,93748.00
2023-04-01T00:14:27.286Z,93744.00
2023-04-01T00:15:27.294Z,93742.00
2023-04-01T00:16:27.324Z,93744.00
2023-04-01T00:17:27.315Z,93744.00
2023-04-01T00:18:27.288Z,93746.00
2023-04-01T00:19:27.293Z,93746.00
2023-04-01T00:20:27.261Z,93748.00
2023-04-01T00:21:27.237Z,93746.00
2023-04-01T00:22:27.248Z,93744.00
2023-04-01T00:23:27.269Z,93746.00
2023-04-01T00:24:27.251Z,93744.00
2023-04-01T00:25:27.214Z,93742.00
2023-04-01T00:26:27.224Z,93738.00
2023-04-01T00:27:27.210Z,93736.00
2023-04-01T00:28:27.216Z,93736.00
2023-04-01T00:29:27.217Z,93735.00
2023-04-01T00:30:27.205Z,93733.00
2023-04-01T00:31:27.307Z,93731.00
2023-04-01T00:32:27.207Z,93731.00
2023-04-01T00:33:27.182Z,93731.00
2023-04-01T00:34:27.151Z,93731.00
2023-04-01T00:35:27.133Z,93735.00
2023-04-01T00:36:27.193Z,93735.00
2023-04-01T00:37:27.180Z,93736.00
2023-04-01T00:38:27.110Z,93738.00
2023-04-01T00:39:27.121Z,93736.00
2023-04-01T00:40:27.134Z,93736.00
2023-04-01T00:41:27.144Z,93736.00
2023-04-01T00:42:27.108Z,93731.00
2023-04-01T00:43:27.081Z,93731.00
2023-04-01T00:44:27.094Z,93733.00
2023-04-01T00:45:27.066Z,93731.00
2023-04-01T00:46:27.151Z,93729.00
2023-04-01T00:47:27.116Z,93725.00
2023-04-01T00:48:27.046Z,93727.00
2023-04-01T00:49:27.123Z,93733.00
2023-04-01T00:50:27.067Z,93736.00
2023-04-01T00:51:27.056Z,93735.00
2023-04-01T00:52:27.059Z,93733.00
2023-04-01T00:53:27.024Z,93733.00
2023-04-01T00:54:27.041Z,93731.00
2023-04-01T00:55:27.032Z,93738.00
2023-04-01T00:56:27.013Z,93736.00
2023-04-01T00:57:27.100Z,93736.00
2023-04-01T00:58:26.992Z,93735.00
2023-04-01T00:59:27.014Z,93735.00
2023-04-01T01:00:26.975Z,93729.00
2023-04-01T01:01:27.010Z,93729.00
2023-04-01T01:02:27.036Z,93731.00
2023-04-01T01:03:26.971Z,93733.00
2023-04-01T01:04:26.961Z,93733.00
2023-04-01T01:05:27.574Z,93731.00
2023-04-01T01:06:26.933Z,93727.00
2023-04-01T01:07:26.919Z,93723.00
2023-04-01T01:08:26.917Z,93723.00
2023-04-01T01:09:26.888Z,93723.00
2023-04-01T01:10:26.894Z,93719.00
2023-04-01T01:11:27.956Z,93723.00
2023-04-01T01:12:26.907Z,93725.00
2023-04-01T01:13:26.891Z,93723.00
2023-04-01T01:14:26.892Z,93723.00
2023-04-01T01:15:26.867Z,93721.00
2023-04-01T01:16:26.921Z,93721.00
2023-04-01T01:17:26.881Z,93719.00
2023-04-01T01:18:26.840Z,93721.00
2023-04-01T01:19:26.854Z,93721.00
2023-04-01T01:20:27.153Z,93719.00
2023-04-01T01:21:26.840Z,93719.00
2023-04-01T01:22:26.810Z,93717.00
2023-04-01T01:23:26.849Z,93715.00
2023-04-01T01:24:26.771Z,93711.00
2023-04-01T01:25:26.793Z,93713.00
2023-04-01T01:26:26.800Z,93719.00
2023-04-01T01:27:26.796Z,93717.00
2023-04-01T01:28:26.772Z,93717.00
2023-04-01T01:29:26.792Z,93717.00
2023-04-01T01:30:26.781Z,93715.00
2023-04-01T01:31:26.871Z,93715.00
2023-04-01T01:32:26.788Z,93717.00
2023-04-01T01:33:26.741Z,93717.00
2023-04-01T01:34:26.730Z,93719.00
2023-04-01T01:35:26.752Z,93717.00
2023-04-01T01:36:26.729Z,93715.00
2023-04-01T01:37:26.727Z,93713.00
2023-04-01T01:38:26.702Z,93715.00
2023-04-01T01:39:26.717Z,93711.00
2023-04-01T01:40:26.710Z,93713.00
2023-04-01T01:41:26.682Z,93713.00
2023-04-01T01:42:26.666Z,93715.00
2023-04-01T01:43:26.674Z,93711.00
2023-04-01T01:44:26.678Z,93713.00
2023-04-01T01:45:26.639Z,93711.00
2023-04-01T01:46:26.688Z,93707.00
2023-04-01T01:47:26.694Z,93707.00
2023-04-01T01:48:26.636Z,93703.00
2023-04-01T01:49:26.682Z,93705.00
2023-04-01T01:50:26.669Z,93701.00
2023-04-01T01:51:26.634Z,93703.00
2023-04-01T01:52:26.732Z,93707.00
2023-04-01T01:53:26.636Z,93705.00
2023-04-01T01:54:26.713Z,93705.00
2023-04-01T01:55:26.625Z,93703.00
2023-04-01T01:56:26.587Z,93703.00
2023-04-01T01:57:26.635Z,93701.00
2023-04-01T01:58:26.603Z,93701.00
2023-04-01T01:59:26.574Z,93699.00
2023-04-01T02:00:26.545Z,93699.00
2023-04-01T02:01:26.820Z,93699.00
2023-04-01T02:02:26.600Z,93699.00
2023-04-01T02:03:26.538Z,93695.00
2023-04-01T02:04:26.585Z,93693.00
2023-04-01T02:05:26.547Z,93691.00
2023-04-01T02:06:26.511Z,93693.00
2023-04-01T02:07:26.533Z,93695.00
2023-04-01T02:08:26.507Z,93693.00
2023-04-01T02:09:26.509Z,93691.00
2023-04-01T02:10:26.486Z,93689.00
2023-04-01T02:11:26.571Z,93691.00
2023-04-01T02:12:26.498Z,93687.00
2023-04-01T02:13:26.486Z,93689.00
2023-04-01T02:14:26.479Z,93689.00
2023-04-01T02:15:26.451Z,93685.00
2023-04-01T02:16:26.568Z,93689.00
2023-04-01T02:17:26.513Z,93691.00
2023-04-01T02:18:26.423Z,93695.00
2023-04-01T02:19:26.448Z,93695.00
2023-04-01T02:20:26.456Z,93697.00
2023-04-01T02:21:26.450Z,93701.00
2023-04-01T02:22:26.422Z,93703.00
2023-04-01T02:23:26.420Z,93707.00
2023-04-01T02:24:26.373Z,93707.00
2023-04-01T02:25:26.417Z,93707.00
2023-04-01T02:26:26.411Z,93713.00
2023-04-01T02:27:26.386Z,93713.00
2023-04-01T02:28:26.367Z,93709.00
2023-04-01T02:29:26.383Z,93709.00
2023-04-01T02:30:26.351Z,93715.00
2023-04-01T02:31:26.357Z,93713.00
2023-04-01T02:32:26.360Z,93709.00
2023-04-01T02:33:26.339Z,93709.00
2023-04-01T02:34:26.364Z,93711.00
2023-04-01T02:35:26.345Z,93711.00
2023-04-01T02:36:26.351Z,93713.00
2023-04-01T02:37:26.327Z,93717.00
2023-04-01T02:38:26.309Z,93717.00
2023-04-01T02:39:26.315Z,93719.00
2023-04-01T02:40:26.300Z,93717.00
2023-04-01T02:41:26.278Z,93717.00
2023-04-01T02:42:26.309Z,93709.00
2023-04-01T02:43:26.288Z,93713.00
2023-04-01T02:44:26.264Z,93709.00
2023-04-01T02:45:26.303Z,93711.00
2023-04-01T02:46:26.278Z,93709.00
2023-04-01T02:47:26.295Z,93709.00
2023-04-01T02:48:26.255Z,93713.00
2023-04-01T02:49:26.263Z,93715.00
2023-04-01T02:50:26.211Z,93717.00
2023-04-01T02:51:26.206Z,93719.00
2023-04-01T02:52:26.222Z,93721.00
2023-04-01T02:53:26.218Z,93721.00
2023-04-01T02:54:26.215Z,93721.00
2023-04-01T02:55:26.185Z,93725.00
2023-04-01T02:56:26.210Z,93725.00
2023-04-01T02:57:26.276Z,93725.00
2023-04-01T02:58:26.256Z,93731.00
2023-04-01T02:59:26.334Z,93733.00
2023-04-01T03:00:26.303Z,93733.00
2023-04-01T03:01:26.359Z,93736.00
2023-04-01T03:02:26.437Z,93736.00
2023-04-01T03:03:26.386Z,93738.00
2023-04-01T03:04:26.356Z,93746.00
2023-04-01T03:05:26.394Z,93746.00
2023-04-01T03:06:26.420Z,93744.00
2023-04-01T03:07:26.424Z,93746.00
2023-04-01T03:08:26.429Z,93748.00
2023-04-01T03:09:26.448Z,93752.00
2023-04-01T03:10:26.434Z,93750.00
2023-04-01T03:11:26.438Z,93752.00
2023-04-01T03:12:26.425Z,93754.00
2023-04-01T03:13:26.453Z,93758.00
2023-04-01T03:14:26.492Z,93762.00
2023-04-01T03:15:26.529Z,93762.00
2023-04-01T03:16:26.525Z,93762.00
2023-04-01T03:17:26.506Z,93760.00
2023-04-01T03:18:26.539Z,93758.00
2023-04-01T03:19:26.645Z,93766.00
2023-04-01T03:20:26.662Z,93768.00
2023-04-01T03:21:26.674Z,93768.00
2023-04-01T03:22:26.698Z,93764.00
2023-04-01T03:23:26.682Z,93772.00
2023-04-01T03:24:26.747Z,93774.00
2023-04-01T03:25:26.738Z,93778.00
2023-04-01T03:26:26.749Z,93780.00
2023-04-01T03:27:26.802Z,93774.00
2023-04-01T03:28:26.808Z,93772.00
2023-04-01T03:29:26.812Z,93768.00
2023-04-01T03:30:26.851Z,93768.00
2023-04-01T03:31:26.934Z,93768.00
2023-04-01T03:32:26.913Z,93768.00
2023-04-01T03:33:26.904Z,93770.00
2023-04-01T03:34:26.871Z,93772.00
2023-04-01T03:35:26.874Z,93772.00
2023-04-01T03:36:26.954Z,93772.00
2023-04-01T03:37:26.911Z,93768.00
2023-04-01T03:38:26.928Z,93776.00
2023-04-01T03:39:26.991Z,93776.00
2023-04-01T03:40:27.046Z,93774.00
2023-04-01T03:41:27.118Z,93774.00
2023-04-01T03:42:27.128Z,93774.00
2023-04-01T03:43:27.118Z,93772.00
2023-04-01T03:44:27.123Z,93774.00
2023-04-01T03:45:27.085Z,93774.00
2023-04-01T03:46:27.146Z,93772.00
2023-04-01T03:47:27.135Z,93772.00
2023-04-01T03:48:27.101Z,93774.00
2023-04-01T03:49:27.178Z,93774.00
2023-04-01T03:50:27.127Z,93776.00
2023-04-01T03:51:27.173Z,93776.00
2023-04-01T03:52:27.142Z,93776.00
2023-04-01T03:53:27.180Z,93774.00
2023-04-01T03:54:27.211Z,93774.00
2023-04-01T03:55:27.213Z,93774.00
2023-04-01T03:56:27.262Z,93774.00
2023-04-01T03:57:27.282Z,93776.00
2023-04-01T03:58:27.280Z,93774.00
2023-04-01T03:59:27.289Z,93774.00
2023-04-01T04:00:27.332Z,93774.00
2023-04-01T04:01:27.411Z,93774.00
2023-04-01T04:02:27.509Z,93774.00
2023-04-01T04:03:27.614Z,93776.00
2023-04-01T04:04:27.513Z,93776.00
2023-04-01T04:05:27.467Z,93776.00
2023-04-01T04:06:27.516Z,93780.00
2023-04-01T04:07:27.484Z,93784.00
2023-04-01T04:08:27.562Z,93782.00
2023-04-01T04:09:27.516Z,93786.00
2023-04-01T04:10:27.562Z,93784.00
2023-04-01T04:11:27.634Z,93782.00
2023-04-01T04:12:27.724Z,93786.00
2023-04-01T04:13:27.756Z,93782.00
2023-04-01T04:14:27.740Z,93780.00
2023-04-01T04:15:27.738Z,93780.00
2023-04-01T04:16:27.907Z,93782.00
2023-04-01T04:17:27.840Z,93786.00
2023-04-01T04:18:27.789Z,93784.00
2023-04-01T04:19:27.821Z,93784.00
2023-04-01T04:20:27.856Z,93786.00
2023-04-01T04:21:27.844Z,93786.00
2023-04-01T04:22:27.855Z,93789.00
2023-04-01T04:23:27.848Z,93791.00
2023-04-01T04:24:27.903Z,93795.00
2023-04-01T04:25:27.907Z,93797.00
2023-04-01T04:26:27.926Z,93801.00
2023-04-01T04:27:27.987Z,93805.00
2023-04-01T04:28:28.081Z,93809.00
2023-04-01T04:29:28.164Z,93811.00
2023-04-01T04:30:28.158Z,93811.00
2023-04-01T04:31:28.236Z,93809.00
2023-04-01T04:32:29.374Z,93809.00
2023-04-01T04:33:28.175Z,93809.00
2023-04-01T04:34:28.185Z,93813.00
2023-04-01T04:35:28.175Z,93813.00
2023-04-01T04:36:28.194Z,93813.00
2023-04-01T04:37:28.229Z,93815.00
2023-04-01T04:38:28.269Z,93817.00
2023-04-01T04:39:28.257Z,93815.00
2023-04-01T04:40:28.239Z,93813.00
2023-04-01T04:41:28.279Z,93811.00
2023-04-01T04:42:28.295Z,93811.00
2023-04-01T04:43:28.380Z,93817.00
2023-04-01T04:44:28.371Z,93821.00
2023-04-01T04:45:28.355Z,93815.00
2023-04-01T04:46:28.443Z,93811.00
2023-04-01T04:47:28.495Z,93809.00
2023-04-01T04:48:28.435Z,93811.00
2023-04-01T04:49:28.440Z,93815.00
2023-04-01T04:50:28.458Z,93821.00
2023-04-01T04:51:28.454Z,93823.00
2023-04-01T04:52:28.475Z,93823.00
2023-04-01T04:53:28.504Z,93821.00
2023-04-01T04:54:28.521Z,93825.00
2023-04-01T04:55:28.530Z,93829.00
2023-04-01T04:56:28.533Z,93827.00
2023-04-01T04:57:28.592Z,93827.00
2023-04-01T04:58:28.550Z,93821.00
2023-04-01T04:59:28.568Z,93819.00
2023-04-01T05:00:28.564Z,93819.00
2023-04-01T05:01:28.646Z,93823.00
2023-04-01T05:02:28.672Z,93821.00
2023-04-01T05:03:28.788Z,93823.00
2023-04-01T05:04:28.671Z,93823.00
2023-04-01T05:05:28.650Z,93825.00
2023-04-01T05:06:28.677Z,93831.00
2023-04-01T05:07:28.689Z,93829.00
2023-04-01T05:08:28.728Z,93831.00
2023-04-01T05:09:28.719Z,93833.00
2023-04-01T05:10:28.738Z,93834.00
2023-04-01T05:11:28.733Z,93836.00
2023-04-01T05:12:28.810Z,93840.00
2023-04-01T05:13:28.824Z,93842.00
2023-04-01T05:14:28.743Z,93844.00
2023-04-01T05:15:28.794Z,93844.00
2023-04-01T05:16:28.787Z,93842.00
2023-04-01T05:17:28.895Z,93844.00
2023-04-01T05:18:28.834Z,93840.00
2023-04-01T05:19:28.840Z,93840.00
2023-04-01T05:20:28.907Z,93838.00
2023-04-01T05:21:28.873Z,93838.00
2023-04-01T05:22:28.925Z,93840.00
2023-04-01T05:23:28.910Z,93840.00
2023-04-01T05:24:28.958Z,93838.00
2023-04-01T05:25:28.971Z,93838.00
2023-04-01T05:26:28.929Z,93838.00
2023-04-01T05:27:28.984Z,93838.00
2023-04-01T05:28:29.003Z,93838.00
2023-04-01T05:29:28.979Z,93840.00
2023-04-01T05:30:29.038Z,93844.00
2023-04-01T05:31:29.051Z,93846.00
2023-04-01T05:32:29.051Z,93846.00
2023-04-01T05:33:29.063Z,93844.00
2023-04-01T05:34:29.063Z,93844.00
2023-04-01T05:35:29.093Z,93844.00
2023-04-01T05:36:29.182Z,93844.00
2023-04-01T05:37:29.141Z,93846.00
2023-04-01T05:38:29.146Z,93844.00
2023-04-01T05:39:29.146Z,93844.00
2023-04-01T05:40:29.217Z,93840.00
2023-04-01T05:41:29.252Z,93834.00
2023-04-01T05:42:29.277Z,93838.00
2023-04-01T05:43:29.285Z,93836.00
2023-04-01T05:44:29.290Z,93834.00
2023-04-01T05:45:29.311Z,93834.00
2023-04-01T05:46:29.420Z,93834.00
2023-04-01T05:47:29.510Z,93836.00
2023-04-01T05:48:29.439Z,93836.00
2023-04-01T05:49:29.477Z,93834.00
2023-04-01T05:50:29.476Z,93834.00
2023-04-01T05:51:29.539Z,93834.00
2023-04-01T05:52:29.584Z,93836.00
2023-04-01T05:53:29.593Z,93840.00
2023-04-01T05:54:29.615Z,93842.00
2023-04-01T05:55:29.633Z,93844.00
2023-04-01T05:56:29.624Z,93844.00
2023-04-01T05:57:29.656Z,93844.00
2023-04-01T05:58:29.641Z,93846.00
2023-04-01T05:59:29.638Z,93846.00
2023-04-01T06:00:29.658Z,93850.00
2023-04-01T06:01:29.667Z,93850.00
2023-04-01T06:02:29.805Z,93852.00
2023-04-01T06:03:29.914Z,93852.00
2023-04-01T06:04:29.769Z,93852.00
2023-04-01T06:05:29.787Z,93850.00
2023-04-01T06:06:29.842Z,93848.00
2023-04-01T06:07:29.810Z,93848.00
2023-04-01T06:08:29.823Z,93848.00
2023-04-01T06:09:29.844Z,93848.00
2023-04-01T06:10:29.862Z,93850.00
2023-04-01T06:11:29.887Z,93852.00
2023-04-01T06:12:29.903Z,93852.00
2023-04-01T06:13:29.823Z,93852.00
2023-04-01T06:14:29.897Z,93864.00
2023-04-01T06:15:29.910Z,93864.00
2023-04-01T06:16:29.992Z,93864.00
2023-04-01T06:17:29.931Z,93864.00
2023-04-01T06:18:29.889Z,93864.00
2023-04-01T06:19:29.879Z,93854.00
2023-04-01T06:20:29.916Z,93854.00
2023-04-01T06:21:29.946Z,93854.00
2023-04-01T06:22:29.936Z,93854.00
2023-04-01T06:23:29.950Z,93864.00
2023-04-01T06:24:29.948Z,93870.00
2023-04-01T06:25:29.990Z,93872.00
2023-04-01T06:26:30.018Z,93870.00
2023-04-01T06:27:30.105Z,93864.00
2023-04-01T06:28:30.112Z,93870.00
2023-04-01T06:29:30.108Z,93866.00
2023-04-01T06:30:30.147Z,93856.00
2023-04-01T06:31:30.281Z,93864.00
2023-04-01T06:32:30.211Z,93864.00
2023-04-01T06:33:30.217Z,93868.00
2023-04-01T06:34:30.271Z,93876.00
2023-04-01T06:35:30.311Z,93874.00
2023-04-01T06:36:30.358Z,93874.00
2023-04-01T06:37:30.352Z,93870.00
2023-04-01T06:38:30.381Z,93866.00
2023-04-01T06:39:30.402Z,93866.00
2023-04-01T06:40:30.443Z,93856.00
2023-04-01T06:41:30.456Z,93854.00
2023-04-01T06:42:30.500Z,93791.00
2023-04-01T06:43:30.545Z,93799.00
2023-04-01T06:44:30.563Z,93793.00
2023-04-01T06:45:30.938Z,93795.00
2023-04-01T06:46:30.668Z,93793.00
2023-04-01T06:47:30.785Z,93793.00
2023-04-01T06:48:30.706Z,93793.00
2023-04-01T06:49:30.783Z,93795.00
2023-04-01T06:50:30.825Z,93795.00
2023-04-01T06:51:30.895Z,93799.00
2023-04-01T06:52:30.985Z,93803.00
2023-04-01T06:53:31.013Z,93805.00
2023-04-01T06:54:31.093Z,93805.00
2023-04-01T06:55:31.294Z,93805.00
2023-04-01T06:56:31.220Z,93807.00
2023-04-01T06:57:31.319Z,93801.00
2023-04-01T06:58:31.356Z,93803.00
2023-04-01T06:59:31.372Z,93803.00
2023-04-01T07:00:31.661Z,93807.00
2023-04-01T07:01:31.514Z,93805.00
2023-04-01T07:02:31.599Z,93807.00
2023-04-01T07:03:31.615Z,93805.00
2023-04-01T07:04:31.693Z,93803.00
2023-04-01T07:05:32.078Z,93805.00
2023-04-01T07:06:31.983Z,93803.00
2023-04-01T07:07:31.760Z,93805.00
2023-04-01T07:08:31.833Z,93803.00
2023-04-01T07:09:31.884Z,93805.00
2023-04-01T07:10:31.944Z,93803.00
2023-04-01T07:11:32.029Z,93809.00
2023-04-01T07:12:32.016Z,93807.00
2023-04-01T07:13:32.068Z,93807.00
2023-04-01T07:14:32.091Z,93809.00
2023-04-01T07:15:32.442Z,93811.00
2023-04-01T07:16:32.176Z,93811.00
2023-04-01T07:17:32.277Z,93809.00
2023-04-01T07:18:32.247Z,93811.00
2023-04-01T07:19:32.349Z,93813.00
2023-04-01T07:20:32.328Z,93811.00
2023-04-01T07:21:33.700Z,93809.00
2023-04-01T07:22:32.372Z,93809.00
2023-04-01T07:23:32.440Z,93807.00
2023-04-01T07:24:32.445Z,93807.00
2023-04-01T07:25:32.752Z,93807.00
2023-04-01T07:26:32.495Z,93805.00
2023-04-01T07:27:32.567Z,93840.00
2023-04-01T07:28:32.625Z,93838.00
2023-04-01T07:29:32.624Z,93840.00
2023-04-01T07:30:32.658Z,93836.00
2023-04-01T07:31:32.790Z,93836.00
2023-04-01T07:32:34.870Z,93838.00
2023-04-01T07:33:32.709Z,93838.00
2023-04-01T07:34:32.649Z,93838.00
2023-04-01T07:35:32.997Z,93842.00
2023-04-01T07:36:32.696Z,93840.00
2023-04-01T07:37:32.688Z,93842.00
2023-04-01T07:38:32.777Z,93844.00
2023-04-01T07:39:32.650Z,93844.00
2023-04-01T07:40:32.654Z,93844.00
2023-04-01T07:41:32.607Z,93850.00
2023-04-01T07:42:32.659Z,93848.00
2023-04-01T07:43:32.612Z,93852.00
2023-04-01T07:44:32.627Z,93854.00
2023-04-01T07:45:33.123Z,93850.00
2023-04-01T07:46:32.654Z,93850.00
2023-04-01T07:47:32.622Z,93848.00
2023-04-01T07:48:32.612Z,93848.00
2023-04-01T07:49:32.600Z,93850.00
2023-04-01T07:50:39.497Z,93852.00
2023-04-01T07:51:32.569Z,93852.00
2023-04-01T07:52:32.559Z,93854.00
2023-04-01T07:53:32.545Z,93838.00
2023-04-01T07:54:32.559Z,93813.00
2023-04-01T07:55:33.284Z,93811.00
2023-04-01T07:56:32.578Z,93813.00
2023-04-01T07:57:32.581Z,93817.00
2023-04-01T07:58:32.518Z,93817.00
2023-04-01T07:59:32.530Z,93823.00
2023-04-01T08:00:32.497Z,93825.00
2023-04-01T08:01:32.534Z,93827.00
2023-04-01T08:02:32.537Z,93827.00
2023-04-01T08:03:32.646Z,93825.00
2023-04-01T08:04:32.473Z,93821.00
2023-04-01T08:05:32.673Z,93819.00
2023-04-01T08:06:32.540Z,93815.00
2023-04-01T08:07:32.452Z,93813.00
2023-04-01T08:08:32.572Z,93819.00
2023-04-01T08:09:32.453Z,93819.00
2023-04-01T08:10:32.463Z,93819.00
2023-04-01T08:11:32.398Z,93815.00
2023-04-01T08:12:32.406Z,93813.00
2023-04-01T08:13:32.400Z,93811.00
2023-04-01T08:14:32.408Z,93805.00
2023-04-01T08:15:32.643Z,93807.00
2023-04-01T08:16:32.422Z,93809.00
2023-04-01T08:17:32.431Z,93805.00
2023-04-01T08:18:32.336Z,93809.00
2023-04-01T08:19:32.419Z,93807.00
2023-04-01T08:20:32.366Z,93805.00
2023-04-01T08:21:32.327Z,93805.00
2023-04-01T08:22:32.332Z,93805.00
2023-04-01T08:23:32.332Z,93805.00
2023-04-01T08:24:44.362Z,93801.00
2023-04-01T08:25:33.600Z,93801.00
2023-04-01T08:26:32.316Z,93799.00
2023-04-01T08:27:32.374Z,93797.00
2023-04-01T08:28:32.377Z,93795.00
2023-04-01T08:29:32.274Z,93795.00
2023-04-01T08:30:32.313Z,93786.00
2023-04-01T08:31:32.382Z,93786.00
2023-04-01T08:32:32.278Z,93787.00
2023-04-01T08:33:32.244Z,93780.00
2023-04-01T08:34:32.266Z,93786.00
2023-04-01T08:35:33.331Z,93784.00
2023-04-01T08:36:32.358Z,93782.00
2023-04-01T08:37:32.223Z,93784.00
2023-04-01T08:38:32.283Z,93782.00
2023-04-01T08:39:32.247Z,93786.00
2023-04-01T08:40:32.246Z,93782.00
2023-04-01T08:41:32.252Z,93780.00
2023-04-01T08:42:32.204Z,93780.00
2023-04-01T08:43:32.197Z,93782.00
2023-04-01T08:44:32.177Z,93780.00
2023-04-01T08:45:32.614Z,93778.00
2023-04-01T08:46:32.161Z,93780.00
2023-04-01T08:47:32.218Z,93780.00
2023-04-01T08:48:32.215Z,93776.00
2023-04-01T08:49:32.192Z,93776.00
2023-04-01T08:50:32.251Z,93780.00
2023-04-01T08:51:32.397Z,93780.00
2023-04-01T08:52:32.344Z,93778.00
2023-04-01T08:53:32.408Z,93780.00
2023-04-01T08:54:32.341Z,93780.00
2023-04-01T08:55:32.540Z,93778.00
2023-04-01T08:56:32.365Z,93780.00
2023-04-01T08:57:32.407Z,93780.00
2023-04-01T08:58:32.436Z,93774.00
2023-04-01T08:59:32.409Z,93780.00
2023-04-01T09:00:32.491Z,93778.00
2023-04-01T09:01:32.419Z,93780.00
2023-04-01T09:02:32.592Z,93778.00
2023-04-01T09:03:32.642Z,93778.00
2023-04-01T09:04:32.617Z,93780.00
2023-04-01T09:05:32.713Z,93780.00
2023-04-01T09:06:32.640Z,93780.00
2023-04-01T09:07:32.639Z,93780.00
2023-04-01T09:08:32.642Z,93780.00
2023-04-01T09:09:32.681Z,93778.00
2023-04-01T09:10:32.712Z,93776.00
2023-04-01T09:11:32.763Z,93776.00
2023-04-01T09:12:32.807Z,93774.00
2023-04-01T09:13:32.848Z,93774.00
2023-04-01T09:14:32.906Z,93772.00
2023-04-01T09:15:33.190Z,93766.00
2023-04-01T09:16:33.286Z,93762.00
2023-04-01T09:17:33.101Z,93762.00
2023-04-01T09:18:33.140Z,93754.00
2023-04-01T09:19:33.187Z,93758.00
2023-04-01T09:20:33.314Z,93758.00
2023-04-01T09:21:33.346Z,93760.00
2023-04-01T09:22:33.400Z,93762.00
2023-04-01T09:23:33.438Z,93762.00
2023-04-01T09:24:33.525Z,93756.00
2023-04-01T09:25:33.879Z,93756.00
2023-04-01T09:26:33.619Z,93752.00
2023-04-01T09:27:33.684Z,93750.00
2023-04-01T09:28:33.745Z,93754.00
2023-04-01T09:29:33.806Z,93752.00
2023-04-01T09:30:33.860Z,93756.00
2023-04-01T09:31:33.989Z,93754.00
2023-04-01T09:32:33.997Z,93750.00
2023-04-01T09:33:33.983Z,93748.00
2023-04-01T09:34:34.046Z,93776.00
2023-04-01T09:35:34.311Z,93780.00
2023-04-01T09:36:34.203Z,93774.00
2023-04-01T09:37:34.281Z,93776.00
2023-04-01T09:38:34.341Z,93774.00
2023-04-01T09:39:34.394Z,93772.00
2023-04-01T09:40:34.447Z,93768.00
2023-04-01T09:41:34.444Z,93768.00
2023-04-01T09:42:34.522Z,93770.00
2023-04-01T09:43:34.614Z,93766.00
2023-04-01T09:44:34.612Z,93766.00
2023-04-01T09:45:34.814Z,93764.00
2023-04-01T09:46:34.767Z,93760.00
2023-04-01T09:47:34.680Z,93758.00
2023-04-01T09:48:34.684Z,93691.00
2023-04-01T09:49:34.774Z,93713.00
2023-04-01T09:50:34.833Z,93711.00
2023-04-01T09:51:34.830Z,93713.00
2023-04-01T09:52:34.902Z,93715.00
2023-04-01T09:53:34.941Z,93713.00
2023-04-01T09:54:35.012Z,93715.00
2023-04-01T09:55:35.377Z,93711.00
2023-04-01T09:56:35.121Z,93709.00
2023-04-01T09:57:35.257Z,93709.00
2023-04-01T09:58:35.241Z,93707.00
2023-04-01T09:59:36.199Z,93705.00
2023-04-01T10:00:35.225Z,93703.00
2023-04-01T10:01:35.243Z,93693.00
2023-04-01T10:02:35.290Z,93699.00
2023-04-01T10:03:35.166Z,93699.00
2023-04-01T10:04:35.209Z,93699.00
2023-04-01T10:05:35.635Z,93701.00
2023-04-01T10:06:35.126Z,93701.00
2023-04-01T10:07:35.219Z,93699.00
2023-04-01T10:08:35.180Z,93705.00
2023-04-01T10:09:35.205Z,93699.00
2023-04-01T10:10:35.151Z,93697.00
2023-04-01T10:11:35.270Z,93697.00
2023-04-01T10:12:35.282Z,93691.00
2023-04-01T10:13:35.276Z,93693.00
2023-04-01T10:14:35.337Z,93697.00
2023-04-01T10:15:35.691Z,93693.00
2023-04-01T10:16:35.502Z,93695.00
2023-04-01T10:17:43.098Z,93689.00
2023-04-01T10:18:35.456Z,93691.00
2023-04-01T10:19:35.441Z,93689.00
2023-04-01T10:20:35.473Z,93689.00
2023-04-01T10:21:35.487Z,93685.00
2023-04-01T10:22:35.439Z,93685.00
2023-04-01T10:23:35.386Z,93682.00
2023-04-01T10:24:35.409Z,93682.00
2023-04-01T10:25:35.586Z,93682.00
2023-04-01T10:26:35.410Z,93684.00
2023-04-01T10:27:35.415Z,93682.00
2023-04-01T10:28:35.381Z,93680.00
2023-04-01T10:29:35.369Z,93682.00
2023-04-01T10:30:35.361Z,93676.00
2023-04-01T10:31:35.437Z,93678.00
2023-04-01T10:32:35.356Z,93678.00
2023-04-01T10:33:35.366Z,93678.00
2023-04-01T10:34:35.366Z,93676.00
2023-04-01T10:35:35.705Z,93674.00
2023-04-01T10:36:35.319Z,93672.00
2023-04-01T10:37:35.341Z,93670.00
2023-04-01T10:38:35.334Z,93668.00
2023-04-01T10:39:35.292Z,93666.00
2023-04-01T10:40:35.304Z,93666.00
2023-04-01T10:41:35.316Z,93666.00
2023-04-01T10:42:35.317Z,93666.00
2023-04-01T10:43:35.312Z,93666.00
2023-04-01T10:44:35.337Z,93662.00
2023-04-01T10:45:35.529Z,93658.00
2023-04-01T10:46:35.472Z,93658.00
2023-04-01T10:47:35.313Z,93660.00
2023-04-01T10:48:35.286Z,93658.00
2023-04-01T10:49:35.332Z,93658.00
2023-04-01T10:50:35.401Z,93654.00
2023-04-01T10:52:35.832Z,93656.00
2023-04-01T10:53:35.795Z,93656.00
2023-04-01T10:54:35.793Z,93656.00
2023-04-01T10:55:36.154Z,93658.00
2023-04-01T10:56:35.749Z,93656.00
2023-04-01T10:57:35.801Z,93652.00
2023-04-01T10:58:35.775Z,93652.00
2023-04-01T10:59:35.726Z,93650.00
2023-04-01T11:00:35.740Z,93646.00
2023-04-01T11:01:35.799Z,93646.00
2023-04-01T11:02:35.758Z,93648.00
2023-04-01T11:03:35.789Z,93644.00
2023-04-01T11:04:35.744Z,93644.00
2023-04-01T11:05:35.897Z,93648.00
2023-04-01T11:06:35.723Z,93642.00
2023-04-01T11:07:35.686Z,93638.00
2023-04-01T11:08:35.665Z,93638.00
2023-04-01T11:09:35.669Z,93638.00
2023-04-01T11:10:35.723Z,93636.00
2023-04-01T11:11:35.678Z,93634.00
2023-04-01T11:12:35.664Z,93630.00
2023-04-01T11:13:35.686Z,93630.00
2023-04-01T11:14:35.630Z,93625.00
2023-04-01T11:15:35.902Z,93625.00
2023-04-01T11:16:35.826Z,93625.00
2023-04-01T11:17:35.655Z,93623.00
2023-04-01T11:18:35.626Z,93625.00
2023-04-01T11:19:35.602Z,93621.00
2023-04-01T11:20:35.621Z,93621.00
2023-04-01T11:21:35.630Z,93623.00
2023-04-01T11:22:35.587Z,93621.00
2023-04-01T11:23:35.587Z,93615.00
2023-04-01T11:24:35.559Z,93617.00
2023-04-01T11:25:35.566Z,93613.00
2023-04-01T11:26:35.652Z,93615.00
2023-04-01T11:27:36.514Z,93617.00
2023-04-01T11:28:35.830Z,93613.00
2023-04-01T11:29:36.525Z,93613.00
2023-04-01T11:30:35.952Z,93613.00
2023-04-01T11:31:35.972Z,93613.00
2023-04-01T11:32:36.113Z,93613.00
2023-04-01T11:33:36.071Z,93609.00
2023-04-01T11:34:36.157Z,93611.00
2023-04-01T11:35:36.403Z,93611.00
2023-04-01T11:36:36.324Z,93611.00
2023-04-01T11:37:36.300Z,93615.00
2023-04-01T11:38:36.390Z,93613.00
2023-04-01T11:39:36.444Z,93609.00
2023-04-01T11:40:36.474Z,93607.00
2023-04-01T11:41:36.510Z,93607.00
2023-04-01T11:42:36.580Z,93599.00
2023-04-01T11:43:36.622Z,93597.00
2023-04-01T11:44:36.713Z,93597.00
2023-04-01T11:45:36.774Z,93595.00